Loda, Illinois
Current Conditions -  °F | °C
As of 6:30 PM on Thursday 27 Nov 2014 (Local Time) from KTIP Reporting Station
Overcast Overcast  
Wind Chill: 17°   Ceiling: 3000
Heat Index: 25°   Visibility: 10mi
Dew Point: 16°   Wind: 8mph
Humidity: 67%   Direction: 310°NW
Pressure: 30.42"   Gusts: NA
Location:  40.52°N, 88.07°W
Report Text: KTIP 280030Z AUTO 31007KT 10SM OVC030 M04/M09 A3042 RMK AO2 T10371090
Loading
Personal Weather Stations






























Interactive Weather Map New forecast layout! Learn more

10-Day Weather Forecast

Advertisements
Track Severe Weather on mobile